sensor_id;sensor_type;location;lat;lon;timestamp;P1;durP1;ratioP1;P2;durP2;ratioP2
44955;SDS011;30686;52.512;-1.188;2023-02-15T00:01:55;41.03;;;17.20;;
44955;SDS011;30686;52.512;-1.188;2023-02-15T00:04:25;41.20;;;18.58;;
44955;SDS011;30686;52.512;-1.188;2023-02-15T00:07:18;36.30;;;17.25;;
44955;SDS011;30686;52.512;-1.188;2023-02-15T00:09:48;42.47;;;16.90;;
44955;SDS011;30686;52.512;-1.188;2023-02-15T00:12:14;38.13;;;17.38;;
44955;SDS011;30686;52.512;-1.188;2023-02-15T00:14:43;37.03;;;17.05;;
44955;SDS011;30686;52.512;-1.188;2023-02-15T00:17:12;36.60;;;17.58;;
44955;SDS011;30686;52.512;-1.188;2023-02-15T00:19:39;42.47;;;17.75;;
44955;SDS011;30686;52.512;-1.188;2023-02-15T00:22:05;37.95;;;17.50;;
44955;SDS011;30686;52.512;-1.188;2023-02-15T00:24:33;36.03;;;15.98;;
44955;SDS011;30686;52.512;-1.188;2023-02-15T00:27:00;38.90;;;16.35;;
44955;SDS011;30686;52.512;-1.188;2023-02-15T00:29:26;38.60;;;17.02;;
44955;SDS011;30686;52.512;-1.188;2023-02-15T00:31:53;36.63;;;17.42;;
44955;SDS011;30686;52.512;-1.188;2023-02-15T00:34:23;38.67;;;16.85;;
44955;SDS011;30686;52.512;-1.188;2023-02-15T00:36:49;40.13;;;17.73;;
44955;SDS011;30686;52.512;-1.188;2023-02-15T00:39:16;40.63;;;18.08;;
44955;SDS011;30686;52.512;-1.188;2023-02-15T00:41:43;34.42;;;16.75;;
44955;SDS011;30686;52.512;-1.188;2023-02-15T00:44:09;38.15;;;16.58;;
44955;SDS011;30686;52.512;-1.188;2023-02-15T00:46:37;39.65;;;17.48;;
44955;SDS011;30686;52.512;-1.188;2023-02-15T00:49:04;46.10;;;16.77;;
44955;SDS011;30686;52.512;-1.188;2023-02-15T00:51:34;35.33;;;17.15;;
44955;SDS011;30686;52.512;-1.188;2023-02-15T00:54:00;39.33;;;17.90;;
44955;SDS011;30686;52.512;-1.188;2023-02-15T00:56:29;33.45;;;16.48;;
44955;SDS011;30686;52.512;-1.188;2023-02-15T00:58:55;39.25;;;18.42;;
44955;SDS011;30686;52.512;-1.188;2023-02-15T01:01:22;37.33;;;16.45;;
44955;SDS011;30686;52.512;-1.188;2023-02-15T01:03:48;37.35;;;16.95;;
44955;SDS011;30686;52.512;-1.188;2023-02-15T01:06:15;38.13;;;17.17;;
44955;SDS011;30686;52.512;-1.188;2023-02-15T01:08:42;36.38;;;17.13;;
44955;SDS011;30686;52.512;-1.188;2023-02-15T01:11:11;33.00;;;15.73;;
44955;SDS011;30686;52.512;-1.188;2023-02-15T01:13:41;41.70;;;16.67;;
44955;SDS011;30686;52.512;-1.188;2023-02-15T01:16:07;37.97;;;16.52;;
44955;SDS011;30686;52.512;-1.188;2023-02-15T01:18:34;36.30;;;17.77;;
44955;SDS011;30686;52.512;-1.188;2023-02-15T01:21:08;33.72;;;14.77;;
44955;SDS011;30686;52.512;-1.188;2023-02-15T01:23:34;36.05;;;16.10;;
44955;SDS011;30686;52.512;-1.188;2023-02-15T01:26:02;36.90;;;16.65;;
44955;SDS011;30686;52.512;-1.188;2023-02-15T01:28:28;34.10;;;15.18;;
44955;SDS011;30686;52.512;-1.188;2023-02-15T01:30:54;39.95;;;16.48;;
44955;SDS011;30686;52.512;-1.188;2023-02-15T01:33:23;46.17;;;16.95;;
44955;SDS011;30686;52.512;-1.188;2023-02-15T01:35:55;36.53;;;15.13;;
44955;SDS011;30686;52.512;-1.188;2023-02-15T01:38:21;29.13;;;15.45;;
44955;SDS011;30686;52.512;-1.188;2023-02-15T01:40:50;40.72;;;16.25;;
44955;SDS011;30686;52.512;-1.188;2023-02-15T01:43:18;37.42;;;16.00;;
44955;SDS011;30686;52.512;-1.188;2023-02-15T01:45:45;38.42;;;15.15;;
44955;SDS011;30686;52.512;-1.188;2023-02-15T01:48:20;32.70;;;14.82;;
44955;SDS011;30686;52.512;-1.188;2023-02-15T01:50:50;36.10;;;15.85;;
44955;SDS011;30686;52.512;-1.188;2023-02-15T01:56:30;36.10;;;15.38;;
44955;SDS011;30686;52.512;-1.188;2023-02-15T01:58:37;33.30;;;15.32;;
44955;SDS011;30686;52.512;-1.188;2023-02-15T02:01:04;36.72;;;15.68;;
44955;SDS011;30686;52.512;-1.188;2023-02-15T02:04:18;31.05;;;14.40;;
44955;SDS011;30686;52.512;-1.188;2023-02-15T02:06:18;38.47;;;16.00;;
44955;SDS011;30686;52.512;-1.188;2023-02-15T02:08:45;32.95;;;13.85;;
44955;SDS011;30686;52.512;-1.188;2023-02-15T02:11:14;33.95;;;14.80;;
44955;SDS011;30686;52.512;-1.188;2023-02-15T02:13:48;33.13;;;14.88;;
44955;SDS011;30686;52.512;-1.188;2023-02-15T02:21:54;37.50;;;15.07;;
44955;SDS011;30686;52.512;-1.188;2023-02-15T02:30:06;28.58;;;13.00;;
44955;SDS011;30686;52.512;-1.188;2023-02-15T02:35:44;31.17;;;12.95;;
44955;SDS011;30686;52.512;-1.188;2023-02-15T02:38:27;29.15;;;13.02;;
44955;SDS011;30686;52.512;-1.188;2023-02-15T02:41:05;30.30;;;13.05;;
44955;SDS011;30686;52.512;-1.188;2023-02-15T02:43:35;26.25;;;13.27;;
44955;SDS011;30686;52.512;-1.188;2023-02-15T02:46:10;27.10;;;13.88;;
44955;SDS011;30686;52.512;-1.188;2023-02-15T02:48:38;25.05;;;13.18;;
44955;SDS011;30686;52.512;-1.188;2023-02-15T02:51:05;32.55;;;13.00;;
44955;SDS011;30686;52.512;-1.188;2023-02-15T02:53:31;25.13;;;12.55;;
44955;SDS011;30686;52.512;-1.188;2023-02-15T02:56:02;25.02;;;12.55;;
44955;SDS011;30686;52.512;-1.188;2023-02-15T02:58:36;28.80;;;13.32;;
44955;SDS011;30686;52.512;-1.188;2023-02-15T03:06:57;30.80;;;12.45;;
44955;SDS011;30686;52.512;-1.188;2023-02-15T03:11:49;26.73;;;12.10;;
44955;SDS011;30686;52.512;-1.188;2023-02-15T03:14:16;29.27;;;12.95;;
44955;SDS011;30686;52.512;-1.188;2023-02-15T03:16:44;29.23;;;12.32;;
44955;SDS011;30686;52.512;-1.188;2023-02-15T03:19:13;31.35;;;12.55;;
44955;SDS011;30686;52.512;-1.188;2023-02-15T03:21:44;30.73;;;13.50;;
44955;SDS011;30686;52.512;-1.188;2023-02-15T03:24:31;28.42;;;12.65;;
44955;SDS011;30686;52.512;-1.188;2023-02-15T03:26:58;28.70;;;13.32;;
44955;SDS011;30686;52.512;-1.188;2023-02-15T03:29:25;29.35;;;13.25;;
44955;SDS011;30686;52.512;-1.188;2023-02-15T03:31:56;30.20;;;13.52;;
44955;SDS011;30686;52.512;-1.188;2023-02-15T03:34:23;26.40;;;13.88;;
44955;SDS011;30686;52.512;-1.188;2023-02-15T03:39:33;31.40;;;14.15;;
44955;SDS011;30686;52.512;-1.188;2023-02-15T03:42:04;34.17;;;13.30;;
44955;SDS011;30686;52.512;-1.188;2023-02-15T03:44:35;31.77;;;14.15;;
44955;SDS011;30686;52.512;-1.188;2023-02-15T03:47:04;31.98;;;13.57;;
44955;SDS011;30686;52.512;-1.188;2023-02-15T03:52:16;32.13;;;14.65;;
44955;SDS011;30686;52.512;-1.188;2023-02-15T03:54:43;32.40;;;13.52;;
44955;SDS011;30686;52.512;-1.188;2023-02-15T03:57:19;27.15;;;13.18;;
44955;SDS011;30686;52.512;-1.188;2023-02-15T04:00:13;28.17;;;13.25;;
44955;SDS011;30686;52.512;-1.188;2023-02-15T04:05:24;29.83;;;14.45;;
44955;SDS011;30686;52.512;-1.188;2023-02-15T04:07:50;29.85;;;14.43;;
44955;SDS011;30686;52.512;-1.188;2023-02-15T04:10:17;29.17;;;13.38;;
44955;SDS011;30686;52.512;-1.188;2023-02-15T04:13:02;29.80;;;12.95;;
44955;SDS011;30686;52.512;-1.188;2023-02-15T04:15:29;33.45;;;15.02;;
44955;SDS011;30686;52.512;-1.188;2023-02-15T04:18:14;32.33;;;15.65;;
44955;SDS011;30686;52.512;-1.188;2023-02-15T04:20:43;29.23;;;14.02;;
44955;SDS011;30686;52.512;-1.188;2023-02-15T04:23:27;27.80;;;12.45;;
44955;SDS011;30686;52.512;-1.188;2023-02-15T04:28:38;27.40;;;12.85;;
44955;SDS011;30686;52.512;-1.188;2023-02-15T04:31:05;32.60;;;15.38;;
44955;SDS011;30686;52.512;-1.188;2023-02-15T04:33:31;32.20;;;14.07;;
44955;SDS011;30686;52.512;-1.188;2023-02-15T04:35:57;37.08;;;14.63;;
44955;SDS011;30686;52.512;-1.188;2023-02-15T04:38:24;26.67;;;13.98;;
44955;SDS011;30686;52.512;-1.188;2023-02-15T04:40:53;33.80;;;13.85;;
44955;SDS011;30686;52.512;-1.188;2023-02-15T04:43:19;27.02;;;13.02;;
44955;SDS011;30686;52.512;-1.188;2023-02-15T04:45:49;31.05;;;15.10;;
44955;SDS011;30686;52.512;-1.188;2023-02-15T04:48:16;30.15;;;14.65;;
44955;SDS011;30686;52.512;-1.188;2023-02-15T04:50:43;33.58;;;14.68;;
44955;SDS011;30686;52.512;-1.188;2023-02-15T04:53:09;30.55;;;14.57;;
44955;SDS011;30686;52.512;-1.188;2023-02-15T04:55:35;31.65;;;15.15;;
44955;SDS011;30686;52.512;-1.188;2023-02-15T04:58:01;30.98;;;14.20;;
44955;SDS011;30686;52.512;-1.188;2023-02-15T05:00:28;31.42;;;14.43;;
44955;SDS011;30686;52.512;-1.188;2023-02-15T05:02:54;32.20;;;14.25;;
44955;SDS011;30686;52.512;-1.188;2023-02-15T05:05:20;37.83;;;14.77;;
44955;SDS011;30686;52.512;-1.188;2023-02-15T05:07:47;36.22;;;14.10;;
44955;SDS011;30686;52.512;-1.188;2023-02-15T05:10:13;32.58;;;15.27;;
44955;SDS011;30686;52.512;-1.188;2023-02-15T05:12:39;32.92;;;14.10;;
44955;SDS011;30686;52.512;-1.188;2023-02-15T05:15:05;31.73;;;14.50;;
44955;SDS011;30686;52.512;-1.188;2023-02-15T05:17:32;32.55;;;14.93;;
44955;SDS011;30686;52.512;-1.188;2023-02-15T05:19:59;38.65;;;16.80;;
44955;SDS011;30686;52.512;-1.188;2023-02-15T05:22:26;27.02;;;13.45;;
44955;SDS011;30686;52.512;-1.188;2023-02-15T05:24:52;32.30;;;14.52;;
44955;SDS011;30686;52.512;-1.188;2023-02-15T05:30:21;31.93;;;15.00;;
44955;SDS011;30686;52.512;-1.188;2023-02-15T05:32:48;34.78;;;15.30;;
44955;SDS011;30686;52.512;-1.188;2023-02-15T05:35:14;39.55;;;16.33;;
44955;SDS011;30686;52.512;-1.188;2023-02-15T05:37:41;34.40;;;16.25;;
44955;SDS011;30686;52.512;-1.188;2023-02-15T05:40:07;40.03;;;15.82;;
44955;SDS011;30686;52.512;-1.188;2023-02-15T05:42:34;36.20;;;15.48;;
44955;SDS011;30686;52.512;-1.188;2023-02-15T05:45:00;31.65;;;15.23;;
44955;SDS011;30686;52.512;-1.188;2023-02-15T05:47:28;37.33;;;15.80;;
44955;SDS011;30686;52.512;-1.188;2023-02-15T05:49:55;36.10;;;15.98;;
44955;SDS011;30686;52.512;-1.188;2023-02-15T05:52:21;34.55;;;14.80;;
44955;SDS011;30686;52.512;-1.188;2023-02-15T05:54:47;40.85;;;16.17;;
44955;SDS011;30686;52.512;-1.188;2023-02-15T05:57:14;37.10;;;16.27;;
44955;SDS011;30686;52.512;-1.188;2023-02-15T05:59:40;41.53;;;16.10;;
44955;SDS011;30686;52.512;-1.188;2023-02-15T06:02:07;35.67;;;16.00;;
44955;SDS011;30686;52.512;-1.188;2023-02-15T06:04:33;35.85;;;16.33;;
44955;SDS011;30686;52.512;-1.188;2023-02-15T06:07:00;35.67;;;16.75;;
44955;SDS011;30686;52.512;-1.188;2023-02-15T06:09:27;38.35;;;17.48;;
44955;SDS011;30686;52.512;-1.188;2023-02-15T06:11:53;35.35;;;16.60;;
44955;SDS011;30686;52.512;-1.188;2023-02-15T06:14:20;34.83;;;15.50;;
44955;SDS011;30686;52.512;-1.188;2023-02-15T06:16:48;36.00;;;16.02;;
44955;SDS011;30686;52.512;-1.188;2023-02-15T06:19:16;32.92;;;15.52;;
44955;SDS011;30686;52.512;-1.188;2023-02-15T06:21:44;40.05;;;18.08;;
44955;SDS011;30686;52.512;-1.188;2023-02-15T06:24:10;35.65;;;15.57;;
44955;SDS011;30686;52.512;-1.188;2023-02-15T06:26:36;34.85;;;16.52;;
44955;SDS011;30686;52.512;-1.188;2023-02-15T06:29:02;42.50;;;18.40;;
44955;SDS011;30686;52.512;-1.188;2023-02-15T06:31:29;40.40;;;16.85;;
44955;SDS011;30686;52.512;-1.188;2023-02-15T06:33:56;33.67;;;16.27;;
44955;SDS011;30686;52.512;-1.188;2023-02-15T06:36:28;34.05;;;15.55;;
44955;SDS011;30686;52.512;-1.188;2023-02-15T06:38:55;41.00;;;16.40;;
44955;SDS011;30686;52.512;-1.188;2023-02-15T06:41:22;40.40;;;17.15;;
44955;SDS011;30686;52.512;-1.188;2023-02-15T06:43:48;43.53;;;17.27;;
44955;SDS011;30686;52.512;-1.188;2023-02-15T06:46:15;36.65;;;17.60;;
44955;SDS011;30686;52.512;-1.188;2023-02-15T06:48:41;33.70;;;16.27;;
44955;SDS011;30686;52.512;-1.188;2023-02-15T06:51:07;42.58;;;17.50;;
44955;SDS011;30686;52.512;-1.188;2023-02-15T06:53:34;40.42;;;17.95;;
44955;SDS011;30686;52.512;-1.188;2023-02-15T06:56:05;37.15;;;16.77;;
44955;SDS011;30686;52.512;-1.188;2023-02-15T06:58:32;40.00;;;17.48;;
44955;SDS011;30686;52.512;-1.188;2023-02-15T07:00:58;34.03;;;15.65;;
44955;SDS011;30686;52.512;-1.188;2023-02-15T07:03:25;42.28;;;17.77;;
44955;SDS011;30686;52.512;-1.188;2023-02-15T07:05:54;42.40;;;18.08;;
44955;SDS011;30686;52.512;-1.188;2023-02-15T07:08:21;37.92;;;17.75;;
44955;SDS011;30686;52.512;-1.188;2023-02-15T07:10:48;43.95;;;17.27;;
44955;SDS011;30686;52.512;-1.188;2023-02-15T07:13:15;39.50;;;17.23;;
44955;SDS011;30686;52.512;-1.188;2023-02-15T07:15:45;38.08;;;16.65;;
44955;SDS011;30686;52.512;-1.188;2023-02-15T07:18:14;38.67;;;16.52;;
44955;SDS011;30686;52.512;-1.188;2023-02-15T07:20:40;37.08;;;18.13;;
44955;SDS011;30686;52.512;-1.188;2023-02-15T07:23:07;43.72;;;17.90;;
44955;SDS011;30686;52.512;-1.188;2023-02-15T07:25:34;34.88;;;19.02;;
44955;SDS011;30686;52.512;-1.188;2023-02-15T07:28:03;41.20;;;17.75;;
44955;SDS011;30686;52.512;-1.188;2023-02-15T07:30:30;38.10;;;17.75;;
44955;SDS011;30686;52.512;-1.188;2023-02-15T07:32:57;42.90;;;17.52;;
44955;SDS011;30686;52.512;-1.188;2023-02-15T07:35:48;41.50;;;17.83;;
44955;SDS011;30686;52.512;-1.188;2023-02-15T07:38:15;47.63;;;19.83;;
44955;SDS011;30686;52.512;-1.188;2023-02-15T07:40:42;45.60;;;18.95;;
44955;SDS011;30686;52.512;-1.188;2023-02-15T07:43:09;39.20;;;17.17;;
44955;SDS011;30686;52.512;-1.188;2023-02-15T07:45:35;38.58;;;18.05;;
44955;SDS011;30686;52.512;-1.188;2023-02-15T07:48:02;42.22;;;18.05;;
44955;SDS011;30686;52.512;-1.188;2023-02-15T07:50:29;39.08;;;17.38;;
44955;SDS011;30686;52.512;-1.188;2023-02-15T07:52:55;41.40;;;16.38;;
44955;SDS011;30686;52.512;-1.188;2023-02-15T07:55:23;50.78;;;19.27;;
44955;SDS011;30686;52.512;-1.188;2023-02-15T07:57:51;39.90;;;18.02;;
44955;SDS011;30686;52.512;-1.188;2023-02-15T08:00:19;39.85;;;17.27;;
44955;SDS011;30686;52.512;-1.188;2023-02-15T08:02:53;43.72;;;17.58;;
44955;SDS011;30686;52.512;-1.188;2023-02-15T08:05:39;41.38;;;17.00;;
44955;SDS011;30686;52.512;-1.188;2023-02-15T08:08:09;39.70;;;16.05;;
44955;SDS011;30686;52.512;-1.188;2023-02-15T08:13:47;46.03;;;18.13;;
44955;SDS011;30686;52.512;-1.188;2023-02-15T08:19:16;40.22;;;17.98;;
44955;SDS011;30686;52.512;-1.188;2023-02-15T08:21:43;55.20;;;19.00;;
44955;SDS011;30686;52.512;-1.188;2023-02-15T08:24:10;38.38;;;17.40;;
44955;SDS011;30686;52.512;-1.188;2023-02-15T08:26:37;49.03;;;20.80;;
44955;SDS011;30686;52.512;-1.188;2023-02-15T08:29:09;43.58;;;18.73;;
44955;SDS011;30686;52.512;-1.188;2023-02-15T08:31:41;43.92;;;19.77;;
44955;SDS011;30686;52.512;-1.188;2023-02-15T08:34:25;41.60;;;18.98;;
44955;SDS011;30686;52.512;-1.188;2023-02-15T08:36:53;37.95;;;18.02;;
44955;SDS011;30686;52.512;-1.188;2023-02-15T08:39:21;41.30;;;19.05;;
44955;SDS011;30686;52.512;-1.188;2023-02-15T08:41:51;40.22;;;17.77;;
44955;SDS011;30686;52.512;-1.188;2023-02-15T08:44:18;44.60;;;19.60;;
44955;SDS011;30686;52.512;-1.188;2023-02-15T08:46:45;42.45;;;19.25;;
44955;SDS011;30686;52.512;-1.188;2023-02-15T08:49:12;45.08;;;19.17;;
44955;SDS011;30686;52.512;-1.188;2023-02-15T08:51:39;45.47;;;20.65;;
44955;SDS011;30686;52.512;-1.188;2023-02-15T08:54:06;42.65;;;17.88;;
44955;SDS011;30686;52.512;-1.188;2023-02-15T08:56:35;39.78;;;19.95;;
44955;SDS011;30686;52.512;-1.188;2023-02-15T08:59:02;50.50;;;20.30;;
44955;SDS011;30686;52.512;-1.188;2023-02-15T09:01:30;39.67;;;17.05;;
44955;SDS011;30686;52.512;-1.188;2023-02-15T09:04:01;43.35;;;18.98;;
44955;SDS011;30686;52.512;-1.188;2023-02-15T09:06:29;42.42;;;19.30;;
44955;SDS011;30686;52.512;-1.188;2023-02-15T09:08:55;37.47;;;17.27;;
44955;SDS011;30686;52.512;-1.188;2023-02-15T09:11:23;38.05;;;18.17;;
44955;SDS011;30686;52.512;-1.188;2023-02-15T09:13:56;49.95;;;19.52;;
44955;SDS011;30686;52.512;-1.188;2023-02-15T09:16:23;40.92;;;20.55;;
44955;SDS011;30686;52.512;-1.188;2023-02-15T09:18:50;35.78;;;15.00;;
44955;SDS011;30686;52.512;-1.188;2023-02-15T09:21:19;43.50;;;18.45;;
44955;SDS011;30686;52.512;-1.188;2023-02-15T09:23:46;47.30;;;21.02;;
44955;SDS011;30686;52.512;-1.188;2023-02-15T09:26:17;40.25;;;17.45;;
44955;SDS011;30686;52.512;-1.188;2023-02-15T09:28:45;47.25;;;20.42;;
44955;SDS011;30686;52.512;-1.188;2023-02-15T09:33:38;39.42;;;19.15;;
44955;SDS011;30686;52.512;-1.188;2023-02-15T09:36:17;46.53;;;18.85;;
44955;SDS011;30686;52.512;-1.188;2023-02-15T09:38:47;39.97;;;17.15;;
44955;SDS011;30686;52.512;-1.188;2023-02-15T09:48:56;33.58;;;13.90;;
44955;SDS011;30686;52.512;-1.188;2023-02-15T09:51:28;41.78;;;18.83;;
44955;SDS011;30686;52.512;-1.188;2023-02-15T09:59:04;40.30;;;18.38;;
44955;SDS011;30686;52.512;-1.188;2023-02-15T10:04:10;37.80;;;18.00;;
44955;SDS011;30686;52.512;-1.188;2023-02-15T10:06:54;45.17;;;18.52;;
44955;SDS011;30686;52.512;-1.188;2023-02-15T10:12:16;37.30;;;18.20;;
44955;SDS011;30686;52.512;-1.188;2023-02-15T10:17:44;36.50;;;17.08;;
44955;SDS011;30686;52.512;-1.188;2023-02-15T10:27:51;40.25;;;17.73;;
44955;SDS011;30686;52.512;-1.188;2023-02-15T10:33:00;38.78;;;18.88;;
44955;SDS011;30686;52.512;-1.188;2023-02-15T10:35:35;39.15;;;15.70;;
44955;SDS011;30686;52.512;-1.188;2023-02-15T10:46:09;36.22;;;17.58;;
44955;SDS011;30686;52.512;-1.188;2023-02-15T10:51:08;34.95;;;17.17;;
44955;SDS011;30686;52.512;-1.188;2023-02-15T11:06:17;41.17;;;17.75;;
44955;SDS011;30686;52.512;-1.188;2023-02-15T11:08:46;39.22;;;17.23;;
44955;SDS011;30686;52.512;-1.188;2023-02-15T11:11:23;36.70;;;18.08;;
44955;SDS011;30686;52.512;-1.188;2023-02-15T11:13:52;38.35;;;17.58;;
44955;SDS011;30686;52.512;-1.188;2023-02-15T11:16:21;36.97;;;17.60;;
44955;SDS011;30686;52.512;-1.188;2023-02-15T11:18:53;31.45;;;13.80;;
44955;SDS011;30686;52.512;-1.188;2023-02-15T11:21:28;33.13;;;14.20;;
44955;SDS011;30686;52.512;-1.188;2023-02-15T11:23:56;31.40;;;15.70;;
44955;SDS011;30686;52.512;-1.188;2023-02-15T11:29:12;32.92;;;15.82;;
44955;SDS011;30686;52.512;-1.188;2023-02-15T11:31:43;36.65;;;16.38;;
44955;SDS011;30686;52.512;-1.188;2023-02-15T11:34:21;35.20;;;16.65;;
44955;SDS011;30686;52.512;-1.188;2023-02-15T11:36:50;36.75;;;16.02;;
44955;SDS011;30686;52.512;-1.188;2023-02-15T11:39:18;38.08;;;16.38;;
44955;SDS011;30686;52.512;-1.188;2023-02-15T11:41:47;28.27;;;15.02;;
44955;SDS011;30686;52.512;-1.188;2023-02-15T11:44:19;37.75;;;16.05;;
44955;SDS011;30686;52.512;-1.188;2023-02-15T11:46:47;32.78;;;14.13;;
44955;SDS011;30686;52.512;-1.188;2023-02-15T11:51:50;35.42;;;16.40;;
44955;SDS011;30686;52.512;-1.188;2023-02-15T11:54:17;28.80;;;13.80;;
44955;SDS011;30686;52.512;-1.188;2023-02-15T11:56:46;36.60;;;15.90;;
44955;SDS011;30686;52.512;-1.188;2023-02-15T11:59:14;42.35;;;16.02;;
44955;SDS011;30686;52.512;-1.188;2023-02-15T12:01:45;39.42;;;16.45;;
44955;SDS011;30686;52.512;-1.188;2023-02-15T12:04:32;31.45;;;14.73;;
44955;SDS011;30686;52.512;-1.188;2023-02-15T12:07:03;33.20;;;14.40;;
44955;SDS011;30686;52.512;-1.188;2023-02-15T12:09:37;32.17;;;15.25;;
44955;SDS011;30686;52.512;-1.188;2023-02-15T12:12:23;26.42;;;13.80;;
44955;SDS011;30686;52.512;-1.188;2023-02-15T12:14:54;33.37;;;14.23;;
44955;SDS011;30686;52.512;-1.188;2023-02-15T12:17:22;35.15;;;13.68;;
44955;SDS011;30686;52.512;-1.188;2023-02-15T12:19:48;21.38;;;10.90;;
44955;SDS011;30686;52.512;-1.188;2023-02-15T12:22:22;28.45;;;12.15;;
44955;SDS011;30686;52.512;-1.188;2023-02-15T12:24:50;29.27;;;13.13;;
44955;SDS011;30686;52.512;-1.188;2023-02-15T12:27:19;31.67;;;11.68;;
44955;SDS011;30686;52.512;-1.188;2023-02-15T12:29:53;27.02;;;11.02;;
44955;SDS011;30686;52.512;-1.188;2023-02-15T12:32:24;20.90;;;11.55;;
44955;SDS011;30686;52.512;-1.188;2023-02-15T12:34:51;24.52;;;10.98;;
44955;SDS011;30686;52.512;-1.188;2023-02-15T12:37:23;26.73;;;12.15;;
44955;SDS011;30686;52.512;-1.188;2023-02-15T12:39:54;31.95;;;12.68;;
44955;SDS011;30686;52.512;-1.188;2023-02-15T12:42:21;18.50;;;8.35;;
44955;SDS011;30686;52.512;-1.188;2023-02-15T12:44:58;26.58;;;11.48;;
44955;SDS011;30686;52.512;-1.188;2023-02-15T12:47:24;27.52;;;10.98;;
44955;SDS011;30686;52.512;-1.188;2023-02-15T12:50:14;26.77;;;10.95;;
44955;SDS011;30686;52.512;-1.188;2023-02-15T12:52:42;23.13;;;9.60;;
44955;SDS011;30686;52.512;-1.188;2023-02-15T12:55:18;24.67;;;11.45;;
44955;SDS011;30686;52.512;-1.188;2023-02-15T12:57:46;20.80;;;9.82;;
44955;SDS011;30686;52.512;-1.188;2023-02-15T13:02:46;18.08;;;8.88;;
44955;SDS011;30686;52.512;-1.188;2023-02-15T13:05:15;24.20;;;8.80;;
44955;SDS011;30686;52.512;-1.188;2023-02-15T13:07:50;23.20;;;9.75;;
44955;SDS011;30686;52.512;-1.188;2023-02-15T13:12:50;32.47;;;9.23;;
44955;SDS011;30686;52.512;-1.188;2023-02-15T13:15:23;25.05;;;8.40;;
44955;SDS011;30686;52.512;-1.188;2023-02-15T13:17:51;21.25;;;8.98;;
44955;SDS011;30686;52.512;-1.188;2023-02-15T13:20:20;32.65;;;9.80;;
44955;SDS011;30686;52.512;-1.188;2023-02-15T13:22:49;24.05;;;8.68;;
44955;SDS011;30686;52.512;-1.188;2023-02-15T13:25:23;16.95;;;8.43;;
44955;SDS011;30686;52.512;-1.188;2023-02-15T13:27:54;17.83;;;8.57;;
44955;SDS011;30686;52.512;-1.188;2023-02-15T13:30:28;16.65;;;8.73;;
44955;SDS011;30686;52.512;-1.188;2023-02-15T13:32:58;17.85;;;8.27;;
44955;SDS011;30686;52.512;-1.188;2023-02-15T13:35:25;22.45;;;10.05;;
44955;SDS011;30686;52.512;-1.188;2023-02-15T13:38:03;26.42;;;9.13;;
44955;SDS011;30686;52.512;-1.188;2023-02-15T13:40:50;25.35;;;9.88;;
44955;SDS011;30686;52.512;-1.188;2023-02-15T14:07:04;17.95;;;8.68;;
44955;SDS011;30686;52.512;-1.188;2023-02-15T14:20:28;20.48;;;8.57;;
44955;SDS011;30686;52.512;-1.188;2023-02-15T14:22:39;22.40;;;6.93;;
44955;SDS011;30686;52.512;-1.188;2023-02-15T14:25:18;18.27;;;8.27;;
44955;SDS011;30686;52.512;-1.188;2023-02-15T14:30:58;21.67;;;9.18;;
44955;SDS011;30686;52.512;-1.188;2023-02-15T14:35:44;17.45;;;7.63;;
44955;SDS011;30686;52.512;-1.188;2023-02-15T14:46:25;15.95;;;6.82;;
44955;SDS011;30686;52.512;-1.188;2023-02-15T14:48:58;23.98;;;6.25;;
44955;SDS011;30686;52.512;-1.188;2023-02-15T14:54:08;16.35;;;6.10;;
44955;SDS011;30686;52.512;-1.188;2023-02-15T14:56:35;17.63;;;6.70;;
44955;SDS011;30686;52.512;-1.188;2023-02-15T14:59:13;15.25;;;5.90;;
44955;SDS011;30686;52.512;-1.188;2023-02-15T15:01:41;20.75;;;5.85;;
44955;SDS011;30686;52.512;-1.188;2023-02-15T15:04:09;15.02;;;5.68;;
44955;SDS011;30686;52.512;-1.188;2023-02-15T15:06:40;18.27;;;6.80;;
44955;SDS011;30686;52.512;-1.188;2023-02-15T15:09:11;24.90;;;5.70;;
44955;SDS011;30686;52.512;-1.188;2023-02-15T15:11:39;13.63;;;5.25;;
44955;SDS011;30686;52.512;-1.188;2023-02-15T15:14:06;22.40;;;5.43;;
44955;SDS011;30686;52.512;-1.188;2023-02-15T15:19:09;11.70;;;4.63;;
44955;SDS011;30686;52.512;-1.188;2023-02-15T15:24:04;15.43;;;4.80;;
44955;SDS011;30686;52.512;-1.188;2023-02-15T15:26:32;17.83;;;4.90;;
44955;SDS011;30686;52.512;-1.188;2023-02-15T15:29:36;25.98;;;5.18;;
44955;SDS011;30686;52.512;-1.188;2023-02-15T15:32:01;9.57;;;4.93;;
44955;SDS011;30686;52.512;-1.188;2023-02-15T15:34:44;19.52;;;5.28;;
44955;SDS011;30686;52.512;-1.188;2023-02-15T15:50:17;16.08;;;5.03;;
44955;SDS011;30686;52.512;-1.188;2023-02-15T15:52:46;14.98;;;5.78;;
44955;SDS011;30686;52.512;-1.188;2023-02-15T15:55:14;17.88;;;5.03;;
44955;SDS011;30686;52.512;-1.188;2023-02-15T15:57:44;12.30;;;4.78;;
44955;SDS011;30686;52.512;-1.188;2023-02-15T16:02:52;13.50;;;4.80;;
44955;SDS011;30686;52.512;-1.188;2023-02-15T16:05:20;17.02;;;4.88;;
44955;SDS011;30686;52.512;-1.188;2023-02-15T16:07:48;16.45;;;6.03;;
44955;SDS011;30686;52.512;-1.188;2023-02-15T16:10:27;14.82;;;5.00;;
44955;SDS011;30686;52.512;-1.188;2023-02-15T16:12:53;23.15;;;6.05;;
44955;SDS011;30686;52.512;-1.188;2023-02-15T16:15:24;14.15;;;5.18;;
44955;SDS011;30686;52.512;-1.188;2023-02-15T16:17:56;17.75;;;4.90;;
44955;SDS011;30686;52.512;-1.188;2023-02-15T16:20:27;11.88;;;4.65;;
44955;SDS011;30686;52.512;-1.188;2023-02-15T16:23:07;17.05;;;5.05;;
44955;SDS011;30686;52.512;-1.188;2023-02-15T16:28:22;12.23;;;4.27;;
44955;SDS011;30686;52.512;-1.188;2023-02-15T16:31:34;15.48;;;5.35;;
44955;SDS011;30686;52.512;-1.188;2023-02-15T16:33:38;24.70;;;5.60;;
44955;SDS011;30686;52.512;-1.188;2023-02-15T16:36:05;17.27;;;4.82;;
44955;SDS011;30686;52.512;-1.188;2023-02-15T16:41:23;17.60;;;6.13;;
44955;SDS011;30686;52.512;-1.188;2023-02-15T16:44:04;13.95;;;5.90;;
44955;SDS011;30686;52.512;-1.188;2023-02-15T16:46:33;15.07;;;4.95;;
44955;SDS011;30686;52.512;-1.188;2023-02-15T16:49:02;11.95;;;4.88;;
44955;SDS011;30686;52.512;-1.188;2023-02-15T16:51:33;20.08;;;5.07;;
44955;SDS011;30686;52.512;-1.188;2023-02-15T16:54:06;13.70;;;5.30;;
44955;SDS011;30686;52.512;-1.188;2023-02-15T16:56:33;23.85;;;6.53;;
44955;SDS011;30686;52.512;-1.188;2023-02-15T16:59:02;14.65;;;5.53;;
44955;SDS011;30686;52.512;-1.188;2023-02-15T17:01:30;14.95;;;4.88;;
44955;SDS011;30686;52.512;-1.188;2023-02-15T17:04:11;16.58;;;5.70;;
44955;SDS011;30686;52.512;-1.188;2023-02-15T17:06:39;12.68;;;5.88;;
44955;SDS011;30686;52.512;-1.188;2023-02-15T17:09:06;9.93;;;4.57;;
44955;SDS011;30686;52.512;-1.188;2023-02-15T17:11:47;14.30;;;4.70;;
44955;SDS011;30686;52.512;-1.188;2023-02-15T17:14:18;13.50;;;4.60;;
44955;SDS011;30686;52.512;-1.188;2023-02-15T17:16:48;18.50;;;7.15;;
44955;SDS011;30686;52.512;-1.188;2023-02-15T17:21:43;13.70;;;5.30;;
44955;SDS011;30686;52.512;-1.188;2023-02-15T17:24:16;21.00;;;5.93;;
44955;SDS011;30686;52.512;-1.188;2023-02-15T17:26:43;16.30;;;5.70;;
44955;SDS011;30686;52.512;-1.188;2023-02-15T17:30:17;15.05;;;5.60;;
44955;SDS011;30686;52.512;-1.188;2023-02-15T17:32:16;14.60;;;5.30;;
44955;SDS011;30686;52.512;-1.188;2023-02-15T17:34:48;24.50;;;6.32;;
44955;SDS011;30686;52.512;-1.188;2023-02-15T17:40:19;16.80;;;5.95;;
44955;SDS011;30686;52.512;-1.188;2023-02-15T17:42:46;16.88;;;6.70;;